Terminal Aerodrome Forecast
Issued by NWS

Current Version | Previous Version | Graphics & Text | Print | Product List | Glossary On
Versions: 1 2 3 4 5 6 7 8 9 10 11 12 13 14 15 16 17 18 19 20 21 22 23 24 25 26 27 28 29 30 31 32 33 34 35 36 37 38 39 40 41 42 43 44 45 46
000
FTUS41 KRNK 250532
TAFLWB
TAF
KLWB 250532Z 2506/2606 29009G21KT P6SM -FZDZ OVC015
     FM251100 27006G16KT P6SM OVC007
     FM251700 23003KT P6SM BKN035
     FM252100 18003KT P6SM OVC050
     FM260300 09003KT 3SM -RASN BR OVC015=

USA.gov is the U.S. government's official web portal to all federal, state and local government web resources and services.